Terminal Aerodrome Forecast
Issued by NWS Mt. Holly, NJ

Home | Current Version | Previous Version | Text Only | Print | Product List | Glossary On
Versions: 1 2 3 4 5 6 7 8 9 10 11 12 13 14 15
253
FTUS41 KPHI 241312 AAA
TAFABE
TAF AMD
KABE 241312Z 2413/2512 19009KT P6SM BKN120
      TEMPO 2414/2416 6SM -RA BKN050
     FM241700 22007KT P6SM SCT025 OVC040
     FM242000 22010KT P6SM BKN080
     FM250300 VRB03KT P6SM BKN120=

USA.gov is the U.S. government's official web portal to all federal, state and local government web resources and services.